sensor_id;sensor_type;location;lat;lon;timestamp;pressure;altitude;pressure_sealevel;temperature;humidity
8229;BME280;4155;50.118;8.714;2022-07-23T00:00:32;100044.53;;;21.54;68.42
8229;BME280;4155;50.118;8.714;2022-07-23T00:03:05;100034.66;;;21.38;69.32
8229;BME280;4155;50.118;8.714;2022-07-23T00:05:32;100023.19;;;21.35;69.21
8229;BME280;4155;50.118;8.714;2022-07-23T00:08:04;100036.81;;;21.30;69.02
8229;BME280;4155;50.118;8.714;2022-07-23T00:10:40;100023.59;;;21.12;69.81
8229;BME280;4155;50.118;8.714;2022-07-23T00:13:09;100018.69;;;21.09;70.08
8229;BME280;4155;50.118;8.714;2022-07-23T00:15:37;100009.38;;;21.05;70.47
8229;BME280;4155;50.118;8.714;2022-07-23T00:18:04;100015.63;;;21.00;70.42
8229;BME280;4155;50.118;8.714;2022-07-23T00:20:32;100015.69;;;21.11;70.66
8229;BME280;4155;50.118;8.714;2022-07-23T00:23:00;100010.69;;;20.92;70.59
8229;BME280;4155;50.118;8.714;2022-07-23T00:25:28;100012.91;;;20.95;71.04
8229;BME280;4155;50.118;8.714;2022-07-23T00:27:57;100013.72;;;21.01;70.77
8229;BME280;4155;50.118;8.714;2022-07-23T00:30:27;100010.19;;;21.00;70.82
8229;BME280;4155;50.118;8.714;2022-07-23T00:32:58;100022.47;;;20.98;70.47
8229;BME280;4155;50.118;8.714;2022-07-23T00:35:28;100035.25;;;20.97;70.76
8229;BME280;4155;50.118;8.714;2022-07-23T00:37:56;100036.88;;;20.93;71.37
8229;BME280;4155;50.118;8.714;2022-07-23T00:40:25;100043.44;;;20.97;71.52
8229;BME280;4155;50.118;8.714;2022-07-23T00:42:53;100041.28;;;21.04;71.02
8229;BME280;4155;50.118;8.714;2022-07-23T00:45:21;100031.47;;;21.03;70.93
8229;BME280;4155;50.118;8.714;2022-07-23T00:47:50;100037.41;;;20.90;71.45
8229;BME280;4155;50.118;8.714;2022-07-23T00:50:18;100025.72;;;21.00;71.46
8229;BME280;4155;50.118;8.714;2022-07-23T00:52:46;100013.97;;;20.94;71.18
8229;BME280;4155;50.118;8.714;2022-07-23T00:55:14;100012.81;;;20.80;71.57
8229;BME280;4155;50.118;8.714;2022-07-23T00:57:42;100007.00;;;20.66;72.57
8229;BME280;4155;50.118;8.714;2022-07-23T01:00:12;100010.28;;;20.63;72.36
8229;BME280;4155;50.118;8.714;2022-07-23T01:02:41;100023.28;;;20.56;73.02
8229;BME280;4155;50.118;8.714;2022-07-23T01:05:10;100025.69;;;20.47;73.39
8229;BME280;4155;50.118;8.714;2022-07-23T01:07:38;100019.41;;;20.47;73.94
8229;BME280;4155;50.118;8.714;2022-07-23T01:10:06;100023.13;;;20.41;74.30
8229;BME280;4155;50.118;8.714;2022-07-23T01:12:55;100020.38;;;20.36;74.79
8229;BME280;4155;50.118;8.714;2022-07-23T01:15:23;100022.03;;;20.37;74.34
8229;BME280;4155;50.118;8.714;2022-07-23T01:17:51;100017.31;;;20.27;74.96
8229;BME280;4155;50.118;8.714;2022-07-23T01:20:20;100030.69;;;20.29;75.01
8229;BME280;4155;50.118;8.714;2022-07-23T01:22:49;100036.72;;;20.36;74.51
8229;BME280;4155;50.118;8.714;2022-07-23T01:25:17;100045.69;;;20.31;74.96
8229;BME280;4155;50.118;8.714;2022-07-23T01:27:45;100045.13;;;20.29;74.79
8229;BME280;4155;50.118;8.714;2022-07-23T01:30:13;100046.84;;;20.40;74.37
8229;BME280;4155;50.118;8.714;2022-07-23T01:32:41;100054.00;;;20.46;74.50
8229;BME280;4155;50.118;8.714;2022-07-23T01:35:09;100059.47;;;20.51;74.11
8229;BME280;4155;50.118;8.714;2022-07-23T01:37:37;100059.53;;;20.57;74.11
8229;BME280;4155;50.118;8.714;2022-07-23T01:40:08;100060.97;;;20.64;73.31
8229;BME280;4155;50.118;8.714;2022-07-23T01:42:36;100053.06;;;20.68;73.46
8229;BME280;4155;50.118;8.714;2022-07-23T01:45:05;100052.66;;;20.86;72.68
8229;BME280;4155;50.118;8.714;2022-07-23T01:47:32;100046.94;;;20.88;73.07
8229;BME280;4155;50.118;8.714;2022-07-23T01:50:00;100037.28;;;20.70;73.39
8229;BME280;4155;50.118;8.714;2022-07-23T01:52:28;100026.56;;;20.58;74.11
8229;BME280;4155;50.118;8.714;2022-07-23T01:54:56;100000.59;;;20.45;74.97
8229;BME280;4155;50.118;8.714;2022-07-23T01:57:25;99983.44;;;20.45;74.87
8229;BME280;4155;50.118;8.714;2022-07-23T01:59:52;99976.28;;;20.39;75.25
8229;BME280;4155;50.118;8.714;2022-07-23T02:02:20;99992.06;;;20.37;75.02
8229;BME280;4155;50.118;8.714;2022-07-23T02:04:48;100002.50;;;20.45;75.08
8229;BME280;4155;50.118;8.714;2022-07-23T02:07:15;100033.84;;;20.47;74.68
8229;BME280;4155;50.118;8.714;2022-07-23T02:09:43;100023.78;;;20.48;75.01
8229;BME280;4155;50.118;8.714;2022-07-23T02:12:11;100015.13;;;20.56;74.46
8229;BME280;4155;50.118;8.714;2022-07-23T02:14:40;100034.16;;;20.51;74.01
8229;BME280;4155;50.118;8.714;2022-07-23T02:17:09;100040.19;;;20.53;74.58
8229;BME280;4155;50.118;8.714;2022-07-23T02:19:37;100030.56;;;20.45;74.86
8229;BME280;4155;50.118;8.714;2022-07-23T02:22:04;100039.34;;;20.53;74.59
8229;BME280;4155;50.118;8.714;2022-07-23T02:24:32;100055.38;;;20.49;75.09
8229;BME280;4155;50.118;8.714;2022-07-23T02:27:00;100061.72;;;20.55;75.27
8229;BME280;4155;50.118;8.714;2022-07-23T02:29:28;100067.16;;;20.55;74.80
8229;BME280;4155;50.118;8.714;2022-07-23T02:31:57;100060.69;;;20.34;75.68
8229;BME280;4155;50.118;8.714;2022-07-23T02:34:25;100060.88;;;20.22;76.27
8229;BME280;4155;50.118;8.714;2022-07-23T02:36:52;100056.16;;;20.12;77.00
8229;BME280;4155;50.118;8.714;2022-07-23T02:39:20;100064.97;;;20.25;76.57
8229;BME280;4155;50.118;8.714;2022-07-23T02:41:48;100058.00;;;20.07;77.31
8229;BME280;4155;50.118;8.714;2022-07-23T02:44:15;100050.16;;;20.10;76.57
8229;BME280;4155;50.118;8.714;2022-07-23T02:46:43;100045.09;;;20.24;76.73
8229;BME280;4155;50.118;8.714;2022-07-23T02:49:12;100048.00;;;20.17;76.87
8229;BME280;4155;50.118;8.714;2022-07-23T02:51:40;100054.25;;;20.13;77.12
8229;BME280;4155;50.118;8.714;2022-07-23T02:54:08;100061.69;;;20.22;76.81
8229;BME280;4155;50.118;8.714;2022-07-23T02:56:36;100055.63;;;20.15;76.58
8229;BME280;4155;50.118;8.714;2022-07-23T02:59:04;100055.34;;;20.17;76.79
8229;BME280;4155;50.118;8.714;2022-07-23T03:01:31;100052.97;;;20.20;77.06
8229;BME280;4155;50.118;8.714;2022-07-23T03:03:59;100048.28;;;20.16;76.81
8229;BME280;4155;50.118;8.714;2022-07-23T03:06:28;100050.75;;;20.17;76.86
8229;BME280;4155;50.118;8.714;2022-07-23T03:08:56;100061.84;;;20.11;77.29
8229;BME280;4155;50.118;8.714;2022-07-23T03:11:24;100064.25;;;20.07;76.97
8229;BME280;4155;50.118;8.714;2022-07-23T03:13:52;100060.44;;;20.08;76.84
8229;BME280;4155;50.118;8.714;2022-07-23T03:16:20;100051.81;;;20.16;77.32
8229;BME280;4155;50.118;8.714;2022-07-23T03:18:47;100058.06;;;20.12;77.53
8229;BME280;4155;50.118;8.714;2022-07-23T03:21:15;100058.00;;;20.07;76.93
8229;BME280;4155;50.118;8.714;2022-07-23T03:23:44;100054.16;;;20.03;77.33
8229;BME280;4155;50.118;8.714;2022-07-23T03:26:11;100054.31;;;19.91;78.11
8229;BME280;4155;50.118;8.714;2022-07-23T03:28:39;100058.16;;;19.95;77.95
8229;BME280;4155;50.118;8.714;2022-07-23T03:31:07;100059.31;;;19.99;77.75
8229;BME280;4155;50.118;8.714;2022-07-23T03:33:35;100060.69;;;20.02;77.32
8229;BME280;4155;50.118;8.714;2022-07-23T03:36:02;100057.13;;;20.01;77.13
8229;BME280;4155;50.118;8.714;2022-07-23T03:38:35;100066.03;;;19.91;77.66
8229;BME280;4155;50.118;8.714;2022-07-23T03:41:04;100075.53;;;19.89;77.75
8229;BME280;4155;50.118;8.714;2022-07-23T03:43:33;100078.25;;;19.89;78.26
8229;BME280;4155;50.118;8.714;2022-07-23T03:46:00;100075.47;;;19.84;78.79
8229;BME280;4155;50.118;8.714;2022-07-23T03:48:28;100081.97;;;19.83;78.63
8229;BME280;4155;50.118;8.714;2022-07-23T03:50:56;100084.16;;;19.81;78.71
8229;BME280;4155;50.118;8.714;2022-07-23T03:53:24;100088.97;;;19.74;78.98
8229;BME280;4155;50.118;8.714;2022-07-23T03:55:51;100101.56;;;19.80;79.32
8229;BME280;4155;50.118;8.714;2022-07-23T03:58:20;100109.47;;;19.81;79.34
8229;BME280;4155;50.118;8.714;2022-07-23T04:00:48;100108.56;;;19.76;79.04
8229;BME280;4155;50.118;8.714;2022-07-23T04:03:16;100110.22;;;19.77;79.02
8229;BME280;4155;50.118;8.714;2022-07-23T04:05:43;100111.63;;;19.79;78.94
8229;BME280;4155;50.118;8.714;2022-07-23T04:08:11;100108.09;;;19.79;79.19
8229;BME280;4155;50.118;8.714;2022-07-23T04:10:39;100106.66;;;19.76;79.11
8229;BME280;4155;50.118;8.714;2022-07-23T04:13:06;100102.56;;;19.74;79.35
8229;BME280;4155;50.118;8.714;2022-07-23T04:15:35;100092.75;;;19.73;79.90
8229;BME280;4155;50.118;8.714;2022-07-23T04:18:04;100106.38;;;19.73;79.61
8229;BME280;4155;50.118;8.714;2022-07-23T04:20:32;100108.19;;;19.89;78.59
8229;BME280;4155;50.118;8.714;2022-07-23T04:23:06;100107.00;;;19.80;79.02
8229;BME280;4155;50.118;8.714;2022-07-23T04:25:34;100103.25;;;19.86;78.81
8229;BME280;4155;50.118;8.714;2022-07-23T04:28:02;100110.84;;;19.84;78.71
8229;BME280;4155;50.118;8.714;2022-07-23T04:30:29;100107.44;;;19.99;77.34
8229;BME280;4155;50.118;8.714;2022-07-23T04:32:58;100117.06;;;20.06;77.32
8229;BME280;4155;50.118;8.714;2022-07-23T04:35:26;100131.94;;;20.20;77.37
8229;BME280;4155;50.118;8.714;2022-07-23T04:37:54;100131.59;;;21.08;73.31
8229;BME280;4155;50.118;8.714;2022-07-23T04:40:21;100128.19;;;21.90;69.89
8229;BME280;4155;50.118;8.714;2022-07-23T04:42:49;100121.91;;;22.00;68.58
8229;BME280;4155;50.118;8.714;2022-07-23T04:45:17;100128.41;;;21.74;68.71
8229;BME280;4155;50.118;8.714;2022-07-23T04:47:45;100123.41;;;21.50;69.46
8229;BME280;4155;50.118;8.714;2022-07-23T04:50:14;100121.72;;;21.44;69.44
8229;BME280;4155;50.118;8.714;2022-07-23T04:52:45;100134.66;;;21.74;68.71
8229;BME280;4155;50.118;8.714;2022-07-23T04:55:12;100146.88;;;22.39;66.38
8229;BME280;4155;50.118;8.714;2022-07-23T04:57:40;100154.00;;;23.12;63.50
8229;BME280;4155;50.118;8.714;2022-07-23T05:00:08;100151.81;;;23.99;60.97
8229;BME280;4155;50.118;8.714;2022-07-23T05:02:37;100151.66;;;23.70;60.92
8229;BME280;4155;50.118;8.714;2022-07-23T05:05:05;100149.09;;;23.19;62.45
8229;BME280;4155;50.118;8.714;2022-07-23T05:07:34;100145.25;;;22.79;62.74
8229;BME280;4155;50.118;8.714;2022-07-23T05:10:02;100143.22;;;21.93;65.96
8229;BME280;4155;50.118;8.714;2022-07-23T05:12:30;100144.69;;;21.11;68.25
8229;BME280;4155;50.118;8.714;2022-07-23T05:14:59;100147.00;;;20.55;70.88
8229;BME280;4155;50.118;8.714;2022-07-23T05:17:26;100156.28;;;20.32;72.29
8229;BME280;4155;50.118;8.714;2022-07-23T05:19:54;100157.59;;;20.30;72.34
8229;BME280;4155;50.118;8.714;2022-07-23T05:22:26;100165.22;;;20.28;72.73
8229;BME280;4155;50.118;8.714;2022-07-23T05:24:55;100159.56;;;20.07;72.92
8229;BME280;4155;50.118;8.714;2022-07-23T05:27:23;100158.25;;;20.10;73.21
8229;BME280;4155;50.118;8.714;2022-07-23T05:29:50;100149.13;;;19.99;73.63
8229;BME280;4155;50.118;8.714;2022-07-23T05:32:18;100157.22;;;19.94;73.95
8229;BME280;4155;50.118;8.714;2022-07-23T05:34:45;100156.59;;;19.87;73.50
8229;BME280;4155;50.118;8.714;2022-07-23T05:37:13;100165.47;;;19.99;73.46
8229;BME280;4155;50.118;8.714;2022-07-23T05:39:41;100154.94;;;20.08;72.68
8229;BME280;4155;50.118;8.714;2022-07-23T05:42:10;100169.47;;;20.18;72.74
8229;BME280;4155;50.118;8.714;2022-07-23T05:44:38;100177.75;;;20.29;71.94
8229;BME280;4155;50.118;8.714;2022-07-23T05:47:06;100186.59;;;20.41;71.10
8229;BME280;4155;50.118;8.714;2022-07-23T05:49:33;100185.16;;;20.33;71.05
8229;BME280;4155;50.118;8.714;2022-07-23T05:52:03;100198.09;;;20.43;70.83
8229;BME280;4155;50.118;8.714;2022-07-23T05:54:33;100189.28;;;20.36;70.27
8229;BME280;4155;50.118;8.714;2022-07-23T05:57:02;100187.25;;;20.48;70.55
8229;BME280;4155;50.118;8.714;2022-07-23T05:59:31;100186.88;;;20.66;69.84
8229;BME280;4155;50.118;8.714;2022-07-23T06:01:59;100192.81;;;20.90;68.45
8229;BME280;4155;50.118;8.714;2022-07-23T06:04:27;100193.84;;;20.84;67.75
8229;BME280;4155;50.118;8.714;2022-07-23T06:06:55;100187.25;;;21.12;67.80
8229;BME280;4155;50.118;8.714;2022-07-23T06:09:22;100183.63;;;21.39;66.55
8229;BME280;4155;50.118;8.714;2022-07-23T06:11:50;100193.78;;;21.48;65.56
8229;BME280;4155;50.118;8.714;2022-07-23T06:14:18;100188.34;;;21.48;65.59
8229;BME280;4155;50.118;8.714;2022-07-23T06:16:46;100195.31;;;21.34;64.78
8229;BME280;4155;50.118;8.714;2022-07-23T06:19:14;100190.63;;;21.72;63.74
8229;BME280;4155;50.118;8.714;2022-07-23T06:21:42;100193.16;;;22.87;59.93
8229;BME280;4155;50.118;8.714;2022-07-23T06:24:13;100190.91;;;24.19;56.43
8229;BME280;4155;50.118;8.714;2022-07-23T06:26:40;100191.16;;;25.30;52.87
8229;BME280;4155;50.118;8.714;2022-07-23T06:29:08;100191.28;;;26.59;49.89
8229;BME280;4155;50.118;8.714;2022-07-23T06:31:36;100187.06;;;26.23;50.01
8229;BME280;4155;50.118;8.714;2022-07-23T06:34:05;100182.00;;;27.20;47.88
8229;BME280;4155;50.118;8.714;2022-07-23T06:36:33;100186.63;;;27.52;46.87
8229;BME280;4155;50.118;8.714;2022-07-23T06:39:01;100189.31;;;27.98;45.77
8229;BME280;4155;50.118;8.714;2022-07-23T06:41:31;100194.84;;;28.70;44.84
8229;BME280;4155;50.118;8.714;2022-07-23T06:43:58;100196.75;;;28.84;43.76
8229;BME280;4155;50.118;8.714;2022-07-23T06:46:26;100183.63;;;28.17;44.55
8229;BME280;4155;50.118;8.714;2022-07-23T06:48:54;100185.84;;;27.79;45.53
8229;BME280;4155;50.118;8.714;2022-07-23T06:51:23;100178.03;;;27.26;46.65
8229;BME280;4155;50.118;8.714;2022-07-23T06:53:50;100181.22;;;27.60;45.73
8229;BME280;4155;50.118;8.714;2022-07-23T06:56:18;100182.16;;;27.97;45.08
8229;BME280;4155;50.118;8.714;2022-07-23T06:58:45;100173.56;;;28.12;45.08
8229;BME280;4155;50.118;8.714;2022-07-23T07:01:13;100172.41;;;28.86;42.83
8229;BME280;4155;50.118;8.714;2022-07-23T07:03:41;100183.38;;;29.53;41.48
8229;BME280;4155;50.118;8.714;2022-07-23T07:06:09;100183.53;;;30.05;41.37
8229;BME280;4155;50.118;8.714;2022-07-23T07:08:38;100176.28;;;30.69;39.78
8229;BME280;4155;50.118;8.714;2022-07-23T07:11:06;100180.34;;;30.89;38.91
8229;BME280;4155;50.118;8.714;2022-07-23T07:13:35;100185.53;;;30.13;39.62
8229;BME280;4155;50.118;8.714;2022-07-23T07:16:03;100182.63;;;30.52;39.05
8229;BME280;4155;50.118;8.714;2022-07-23T07:18:31;100180.00;;;30.47;39.21
8229;BME280;4155;50.118;8.714;2022-07-23T07:20:58;100188.03;;;30.66;39.32
8229;BME280;4155;50.118;8.714;2022-07-23T07:23:26;100195.97;;;30.50;39.04
8229;BME280;4155;50.118;8.714;2022-07-23T07:25:55;100206.31;;;30.02;40.03
8229;BME280;4155;50.118;8.714;2022-07-23T07:28:23;100208.97;;;30.15;40.11
8229;BME280;4155;50.118;8.714;2022-07-23T07:30:51;100215.56;;;29.88;40.24
8229;BME280;4155;50.118;8.714;2022-07-23T07:33:19;100213.72;;;30.32;39.41
8229;BME280;4155;50.118;8.714;2022-07-23T07:35:47;100206.03;;;30.12;39.20
8229;BME280;4155;50.118;8.714;2022-07-23T07:38:15;100207.66;;;30.30;39.69
8229;BME280;4155;50.118;8.714;2022-07-23T07:40:43;100204.31;;;30.68;38.37
8229;BME280;4155;50.118;8.714;2022-07-23T07:43:12;100201.81;;;30.40;38.89
8229;BME280;4155;50.118;8.714;2022-07-23T07:45:39;100214.72;;;29.88;40.78
8229;BME280;4155;50.118;8.714;2022-07-23T07:48:07;100224.66;;;30.63;39.37
8229;BME280;4155;50.118;8.714;2022-07-23T07:50:35;100224.63;;;31.06;38.93
8229;BME280;4155;50.118;8.714;2022-07-23T07:53:03;100220.88;;;30.50;39.04
8229;BME280;4155;50.118;8.714;2022-07-23T07:55:32;100243.81;;;30.25;40.37
8229;BME280;4155;50.118;8.714;2022-07-23T07:57:59;100239.88;;;29.69;40.95
8229;BME280;4155;50.118;8.714;2022-07-23T08:00:29;100241.34;;;29.75;41.30
8229;BME280;4155;50.118;8.714;2022-07-23T08:02:58;100240.78;;;29.33;41.79
8229;BME280;4155;50.118;8.714;2022-07-23T08:05:29;100236.59;;;28.91;43.05
8229;BME280;4155;50.118;8.714;2022-07-23T08:07:58;100250.41;;;28.91;43.17
8229;BME280;4155;50.118;8.714;2022-07-23T08:10:28;100249.81;;;28.94;43.06
8229;BME280;4155;50.118;8.714;2022-07-23T08:12:58;100252.56;;;29.17;42.64
8229;BME280;4155;50.118;8.714;2022-07-23T08:15:29;100257.84;;;29.89;41.27
8229;BME280;4155;50.118;8.714;2022-07-23T08:17:58;100241.28;;;28.68;44.20
8229;BME280;4155;50.118;8.714;2022-07-23T08:20:28;100248.59;;;29.09;42.83
8229;BME280;4155;50.118;8.714;2022-07-23T08:22:58;100252.88;;;30.08;40.90
8229;BME280;4155;50.118;8.714;2022-07-23T08:25:27;100250.84;;;29.91;41.69
8229;BME280;4155;50.118;8.714;2022-07-23T08:27:57;100248.75;;;30.71;40.21
8229;BME280;4155;50.118;8.714;2022-07-23T08:30:26;100252.09;;;31.46;38.56
8229;BME280;4155;50.118;8.714;2022-07-23T08:32:56;100253.31;;;31.28;39.43
8229;BME280;4155;50.118;8.714;2022-07-23T08:35:27;100255.56;;;30.57;40.88
8229;BME280;4155;50.118;8.714;2022-07-23T08:37:56;100261.28;;;30.60;40.74
8229;BME280;4155;50.118;8.714;2022-07-23T08:40:26;100268.13;;;30.06;40.87
8229;BME280;4155;50.118;8.714;2022-07-23T08:42:54;100260.75;;;30.32;40.67
8229;BME280;4155;50.118;8.714;2022-07-23T08:45:23;100274.69;;;30.75;39.66
8229;BME280;4155;50.118;8.714;2022-07-23T08:47:52;100277.13;;;30.77;39.98
8229;BME280;4155;50.118;8.714;2022-07-23T08:50:23;100275.31;;;31.07;39.91
8229;BME280;4155;50.118;8.714;2022-07-23T08:52:52;100270.41;;;31.13;38.48
8229;BME280;4155;50.118;8.714;2022-07-23T08:55:21;100263.25;;;31.03;39.54
8229;BME280;4155;50.118;8.714;2022-07-23T08:57:51;100261.66;;;30.76;38.72
8229;BME280;4155;50.118;8.714;2022-07-23T09:00:20;100273.44;;;29.85;41.17
8229;BME280;4155;50.118;8.714;2022-07-23T09:02:49;100269.50;;;30.17;40.85
8229;BME280;4155;50.118;8.714;2022-07-23T09:05:18;100262.13;;;30.04;40.96
8229;BME280;4155;50.118;8.714;2022-07-23T09:08:07;100265.38;;;29.44;42.19
8229;BME280;4155;50.118;8.714;2022-07-23T09:10:57;100273.00;;;29.38;42.61
8229;BME280;4155;50.118;8.714;2022-07-23T09:13:31;100272.19;;;29.37;42.94
8229;BME280;4155;50.118;8.714;2022-07-23T09:16:01;100265.84;;;28.92;42.71
8229;BME280;4155;50.118;8.714;2022-07-23T09:18:32;100262.31;;;28.78;43.17
8229;BME280;4155;50.118;8.714;2022-07-23T09:21:11;100263.22;;;28.51;44.41
8229;BME280;4155;50.118;8.714;2022-07-23T09:23:43;100257.72;;;28.10;44.61
8229;BME280;4155;50.118;8.714;2022-07-23T09:26:32;100253.81;;;27.83;46.41
8229;BME280;4155;50.118;8.714;2022-07-23T09:29:07;100250.16;;;27.88;43.89
8229;BME280;4155;50.118;8.714;2022-07-23T09:31:45;100259.03;;;28.26;43.27
8229;BME280;4155;50.118;8.714;2022-07-23T09:34:17;100262.22;;;28.33;44.48
8229;BME280;4155;50.118;8.714;2022-07-23T09:36:46;100257.88;;;27.58;46.63
8229;BME280;4155;50.118;8.714;2022-07-23T09:39:16;100273.25;;;28.19;43.89
8229;BME280;4155;50.118;8.714;2022-07-23T09:41:49;100270.78;;;28.04;44.09
8229;BME280;4155;50.118;8.714;2022-07-23T09:44:18;100271.72;;;28.00;44.38
8229;BME280;4155;50.118;8.714;2022-07-23T09:46:58;100273.56;;;28.18;43.29
8229;BME280;4155;50.118;8.714;2022-07-23T09:49:26;100264.88;;;28.11;43.63
8229;BME280;4155;50.118;8.714;2022-07-23T09:51:57;100272.31;;;28.51;41.54
8229;BME280;4155;50.118;8.714;2022-07-23T09:54:32;100272.53;;;28.41;42.72
8229;BME280;4155;50.118;8.714;2022-07-23T09:57:04;100269.69;;;28.69;42.67
8229;BME280;4155;50.118;8.714;2022-07-23T09:59:36;100264.84;;;28.38;42.87
8229;BME280;4155;50.118;8.714;2022-07-23T10:02:06;100260.91;;;27.89;42.63
8229;BME280;4155;50.118;8.714;2022-07-23T10:04:35;100275.44;;;27.30;43.66
8229;BME280;4155;50.118;8.714;2022-07-23T10:07:05;100266.16;;;27.26;43.86
8229;BME280;4155;50.118;8.714;2022-07-23T10:09:36;100274.66;;;27.43;44.04
8229;BME280;4155;50.118;8.714;2022-07-23T10:12:10;100274.91;;;27.60;43.69
8229;BME280;4155;50.118;8.714;2022-07-23T10:14:52;100269.88;;;27.49;43.53
8229;BME280;4155;50.118;8.714;2022-07-23T10:17:19;100268.56;;;27.46;42.99
8229;BME280;4155;50.118;8.714;2022-07-23T10:19:47;100265.38;;;27.06;44.94
8229;BME280;4155;50.118;8.714;2022-07-23T10:22:19;100271.22;;;27.51;45.29
8229;BME280;4155;50.118;8.714;2022-07-23T10:24:55;100265.47;;;28.21;44.13
8229;BME280;4155;50.118;8.714;2022-07-23T10:30:20;100258.88;;;28.59;42.55
8229;BME280;4155;50.118;8.714;2022-07-23T10:33:05;100258.91;;;29.17;42.37
8229;BME280;4155;50.118;8.714;2022-07-23T10:35:42;100265.25;;;28.95;42.56
8229;BME280;4155;50.118;8.714;2022-07-23T10:38:13;100259.91;;;28.99;42.44
8229;BME280;4155;50.118;8.714;2022-07-23T10:41:00;100251.03;;;28.52;42.47
8229;BME280;4155;50.118;8.714;2022-07-23T10:43:28;100259.56;;;28.28;42.83
8229;BME280;4155;50.118;8.714;2022-07-23T10:46:21;100258.09;;;28.17;42.91
8229;BME280;4155;50.118;8.714;2022-07-23T10:49:21;100259.22;;;27.75;43.11
8229;BME280;4155;50.118;8.714;2022-07-23T10:52:24;100263.00;;;27.32;45.09
8229;BME280;4155;50.118;8.714;2022-07-23T10:54:53;100261.84;;;27.20;45.08
8229;BME280;4155;50.118;8.714;2022-07-23T10:57:23;100259.44;;;27.32;44.29
8229;BME280;4155;50.118;8.714;2022-07-23T11:00:12;100262.00;;;27.42;44.31
8229;BME280;4155;50.118;8.714;2022-07-23T11:02:41;100261.44;;;27.45;44.49
8229;BME280;4155;50.118;8.714;2022-07-23T11:05:11;100249.34;;;27.41;43.72
8229;BME280;4155;50.118;8.714;2022-07-23T11:08:13;100252.97;;;27.55;44.40
8229;BME280;4155;50.118;8.714;2022-07-23T11:10:45;100248.13;;;27.93;42.86
8229;BME280;4155;50.118;8.714;2022-07-23T11:13:37;100247.88;;;28.17;41.99
8229;BME280;4155;50.118;8.714;2022-07-23T11:16:20;100248.59;;;28.37;43.38
8229;BME280;4155;50.118;8.714;2022-07-23T11:18:54;100239.94;;;28.02;43.76
8229;BME280;4155;50.118;8.714;2022-07-23T11:21:41;100239.50;;;28.50;41.77
8229;BME280;4155;50.118;8.714;2022-07-23T11:24:11;100244.41;;;28.53;41.14
8229;BME280;4155;50.118;8.714;2022-07-23T11:27:03;100240.59;;;28.49;41.60
8229;BME280;4155;50.118;8.714;2022-07-23T11:29:47;100241.66;;;28.25;41.89
8229;BME280;4155;50.118;8.714;2022-07-23T11:32:28;100240.97;;;28.34;41.95
8229;BME280;4155;50.118;8.714;2022-07-23T11:34:56;100246.38;;;28.75;42.07
8229;BME280;4155;50.118;8.714;2022-07-23T11:37:41;100240.19;;;28.92;41.48
8229;BME280;4155;50.118;8.714;2022-07-23T11:40:13;100233.56;;;28.79;40.48
8229;BME280;4155;50.118;8.714;2022-07-23T11:42:53;100230.19;;;28.46;40.77
8229;BME280;4155;50.118;8.714;2022-07-23T11:45:23;100223.28;;;28.07;41.43
8229;BME280;4155;50.118;8.714;2022-07-23T11:47:51;100213.88;;;28.22;41.63
8229;BME280;4155;50.118;8.714;2022-07-23T11:50:23;100217.56;;;28.31;42.56
8229;BME280;4155;50.118;8.714;2022-07-23T11:52:51;100218.75;;;28.39;41.06
8229;BME280;4155;50.118;8.714;2022-07-23T11:55:20;100222.50;;;28.57;40.40
8229;BME280;4155;50.118;8.714;2022-07-23T11:57:50;100223.44;;;28.88;39.67
8229;BME280;4155;50.118;8.714;2022-07-23T12:00:20;100228.84;;;28.93;39.25
8229;BME280;4155;50.118;8.714;2022-07-23T12:02:51;100219.44;;;28.94;40.60
8229;BME280;4155;50.118;8.714;2022-07-23T12:05:21;100215.84;;;28.94;40.09
8229;BME280;4155;50.118;8.714;2022-07-23T12:07:50;100218.41;;;29.44;40.35
8229;BME280;4155;50.118;8.714;2022-07-23T12:10:19;100211.38;;;29.60;38.32
8229;BME280;4155;50.118;8.714;2022-07-23T12:12:49;100207.75;;;29.51;39.81
8229;BME280;4155;50.118;8.714;2022-07-23T12:15:20;100211.66;;;28.96;39.21
8229;BME280;4155;50.118;8.714;2022-07-23T12:17:51;100199.72;;;28.29;41.35
8229;BME280;4155;50.118;8.714;2022-07-23T12:20:23;100207.31;;;28.45;41.39
8229;BME280;4155;50.118;8.714;2022-07-23T12:22:52;100205.53;;;28.86;40.23
8229;BME280;4155;50.118;8.714;2022-07-23T12:25:23;100210.75;;;29.09;39.48
8229;BME280;4155;50.118;8.714;2022-07-23T12:28:03;100195.41;;;28.95;38.98
8229;BME280;4155;50.118;8.714;2022-07-23T12:30:33;100199.25;;;29.16;40.41
8229;BME280;4155;50.118;8.714;2022-07-23T12:33:03;100207.63;;;29.64;39.70
8229;BME280;4155;50.118;8.714;2022-07-23T12:35:34;100199.94;;;29.53;39.94
8229;BME280;4155;50.118;8.714;2022-07-23T12:38:04;100198.34;;;28.98;40.38
8229;BME280;4155;50.118;8.714;2022-07-23T12:40:34;100197.19;;;28.99;40.48
8229;BME280;4155;50.118;8.714;2022-07-23T12:43:04;100207.44;;;29.30;38.99
8229;BME280;4155;50.118;8.714;2022-07-23T12:45:45;100208.13;;;29.66;37.36
8229;BME280;4155;50.118;8.714;2022-07-23T12:48:17;100203.31;;;29.81;37.99
8229;BME280;4155;50.118;8.714;2022-07-23T12:50:55;100204.41;;;29.71;38.50
8229;BME280;4155;50.118;8.714;2022-07-23T12:53:26;100195.94;;;29.59;38.08
8229;BME280;4155;50.118;8.714;2022-07-23T12:56:00;100202.91;;;29.25;38.66
8229;BME280;4155;50.118;8.714;2022-07-23T12:58:48;100196.72;;;29.28;38.30
8229;BME280;4155;50.118;8.714;2022-07-23T13:01:27;100191.50;;;28.96;39.22
8229;BME280;4155;50.118;8.714;2022-07-23T13:04:03;100199.88;;;28.68;40.13
8229;BME280;4155;50.118;8.714;2022-07-23T13:06:40;100203.25;;;28.65;39.84
8229;BME280;4155;50.118;8.714;2022-07-23T13:09:10;100204.22;;;28.83;39.13
8229;BME280;4155;50.118;8.714;2022-07-23T13:11:39;100212.78;;;28.81;39.20
8229;BME280;4155;50.118;8.714;2022-07-23T13:14:07;100203.91;;;29.07;39.30
8229;BME280;4155;50.118;8.714;2022-07-23T13:16:35;100211.53;;;29.63;39.10
8229;BME280;4155;50.118;8.714;2022-07-23T13:19:05;100211.41;;;30.26;38.21
8229;BME280;4155;50.118;8.714;2022-07-23T13:21:39;100201.31;;;30.12;36.99
8229;BME280;4155;50.118;8.714;2022-07-23T13:24:08;100202.97;;;30.57;36.90
8229;BME280;4155;50.118;8.714;2022-07-23T13:26:40;100200.56;;;29.81;39.14
8229;BME280;4155;50.118;8.714;2022-07-23T13:29:09;100207.34;;;29.75;39.63